createdAt,value
2023-05-21T17:31:44.638Z,4.23
2023-05-21T17:34:30.651Z,4.05
2023-05-21T17:37:16.405Z,3.40
2023-05-21T17:40:02.067Z,3.30
2023-05-21T17:42:47.850Z,3.45
2023-05-21T17:45:35.240Z,3.70
2023-05-21T17:48:21.548Z,3.75
2023-05-21T17:51:06.943Z,3.85
2023-05-21T17:53:52.904Z,3.80
2023-05-21T17:56:41.110Z,3.80
2023-05-21T17:59:26.587Z,3.60
2023-05-21T18:02:12.666Z,3.80
2023-05-21T18:04:58.060Z,3.63
2023-05-21T18:07:43.580Z,3.83
2023-05-21T18:10:29.720Z,3.67
2023-05-21T18:13:15.455Z,3.83
2023-05-21T18:16:00.858Z,3.95
2023-05-21T18:18:46.516Z,3.42
2023-05-21T18:21:35.424Z,3.72
2023-05-21T18:24:21.025Z,3.83
2023-05-21T18:27:06.563Z,4.15
2023-05-21T18:29:52.397Z,4.65
2023-05-21T18:32:41.015Z,4.13
2023-05-21T18:35:27.389Z,4.20
2023-05-21T18:38:13.256Z,4.13
2023-05-21T18:40:58.975Z,3.97
2023-05-21T18:43:44.154Z,4.50
2023-05-21T18:46:29.629Z,4.43
2023-05-21T18:49:15.055Z,4.03
2023-05-21T18:52:00.328Z,4.28
2023-05-21T18:54:45.944Z,4.72
2023-05-21T18:57:33.536Z,4.00
2023-05-21T19:00:19.609Z,4.20
2023-05-21T19:03:06.179Z,4.35
2023-05-21T19:05:51.803Z,4.20
2023-05-21T19:08:37.138Z,4.18
2023-05-21T19:11:23.555Z,4.13
2023-05-21T19:14:09.476Z,3.80
2023-05-21T19:16:54.917Z,4.30
2023-05-21T19:19:40.309Z,3.65
2023-05-21T19:22:27.082Z,3.92
2023-05-21T19:25:12.443Z,3.97
2023-05-21T19:27:58.108Z,4.18
2023-05-21T19:30:43.508Z,3.47
2023-05-21T19:33:28.877Z,3.95
2023-05-21T19:36:15.020Z,3.28
2023-05-21T19:39:00.784Z,3.75
2023-05-21T19:41:46.572Z,3.38
2023-05-21T19:44:31.818Z,3.67
2023-05-21T19:47:17.246Z,3.33
2023-05-21T19:50:03.649Z,3.85
2023-05-21T19:52:50.046Z,3.60
2023-05-21T19:55:37.432Z,3.72
2023-05-21T19:58:26.765Z,3.45
2023-05-21T20:01:14.333Z,3.88
2023-05-21T20:04:00.820Z,3.22
2023-05-21T20:06:46.870Z,3.92
2023-05-21T20:09:32.763Z,3.80
2023-05-21T20:12:18.656Z,3.65
2023-05-21T20:15:06.970Z,3.17
2023-05-21T20:17:53.396Z,3.47
2023-05-21T20:20:39.609Z,3.45
2023-05-21T20:23:25.340Z,3.38
2023-05-21T20:26:12.201Z,2.95
2023-05-21T20:28:57.713Z,3.40
2023-05-21T20:31:43.623Z,3.15
2023-05-21T20:34:29.915Z,3.15
2023-05-21T20:37:15.503Z,3.65
2023-05-21T20:40:00.981Z,3.55
2023-05-21T20:42:48.422Z,3.00
2023-05-21T20:45:36.263Z,3.53
2023-05-21T20:48:21.771Z,3.22
2023-05-21T20:51:08.122Z,3.45
2023-05-21T20:53:53.439Z,3.20
2023-05-21T20:56:42.507Z,3.88
2023-05-21T20:59:28.261Z,3.33
2023-05-21T21:02:16.868Z,3.40
2023-05-21T21:05:03.532Z,3.45
2023-05-21T21:07:55.499Z,3.45
2023-05-21T21:10:42.728Z,3.22
2023-05-21T21:13:27.987Z,2.85
2023-05-21T21:16:13.488Z,3.10
2023-05-21T21:18:58.957Z,3.10
2023-05-21T21:21:45.507Z,2.78
2023-05-21T21:24:31.629Z,3.38
2023-05-21T21:27:17.165Z,3.10
2023-05-21T21:30:03.226Z,3.40
2023-05-21T21:32:49.671Z,3.22
2023-05-21T21:35:35.446Z,3.28
2023-05-21T21:38:20.867Z,3.13
2023-05-21T21:41:07.637Z,3.33
2023-05-21T21:43:52.908Z,3.30
2023-05-21T21:46:39.115Z,3.28
2023-05-21T21:49:24.397Z,2.90
2023-05-21T21:52:10.851Z,3.30
2023-05-21T21:54:56.151Z,3.25
2023-05-21T21:57:41.800Z,3.42
2023-05-21T22:00:27.450Z,3.13
2023-05-21T22:03:14.612Z,3.42
2023-05-21T22:06:01.242Z,2.88
2023-05-21T22:08:46.481Z,2.92
2023-05-21T22:11:32.152Z,3.00
2023-05-21T22:14:18.296Z,2.90
2023-05-21T22:17:04.405Z,2.83
2023-05-21T22:19:49.801Z,3.40
2023-05-21T22:22:35.430Z,3.20
2023-05-21T22:25:20.980Z,2.88
2023-05-21T22:28:06.490Z,3.00
2023-05-21T22:30:51.827Z,3.03
2023-05-21T22:33:37.190Z,2.90
2023-05-21T22:36:22.647Z,2.78
2023-05-21T22:39:08.436Z,3.13
2023-05-21T22:41:54.073Z,2.97
2023-05-21T22:44:39.276Z,3.20
2023-05-21T22:47:26.373Z,2.97
2023-05-21T22:50:12.923Z,2.80
2023-05-21T22:52:58.787Z,2.88
2023-05-21T22:55:44.662Z,3.03
2023-05-21T22:58:29.942Z,2.92
2023-05-21T23:01:15.149Z,3.20
2023-05-21T23:04:00.927Z,3.25
2023-05-21T23:06:46.175Z,2.83
2023-05-21T23:09:31.369Z,3.17
2023-05-21T23:12:17.425Z,3.20
2023-05-21T23:15:04.813Z,2.85
2023-05-21T23:17:50.608Z,2.70
2023-05-21T23:20:37.096Z,3.05
2023-05-21T23:23:22.942Z,2.80
2023-05-21T23:26:08.328Z,3.03
2023-05-21T23:28:53.525Z,3.10
2023-05-21T23:31:38.737Z,2.90
2023-05-21T23:34:24.908Z,2.75
2023-05-21T23:37:10.820Z,2.70
2023-05-21T23:39:56.401Z,2.65
2023-05-21T23:42:41.689Z,3.15
2023-05-21T23:45:27.050Z,3.03
2023-05-21T23:48:12.862Z,2.92
2023-05-21T23:50:58.716Z,2.80
2023-05-21T23:53:44.597Z,2.85
2023-05-21T23:56:30.239Z,2.75
2023-05-21T23:59:17.703Z,3.08
